Time;durP1;ratioP1;P1;durP2;ratioP2;P2;SDS_P1;SDS_P2;PMS_P1;PMS_P2;Temp;Humidity;BMP_temperature;BMP_pressure;BME280_temperature;BME280_humidity;BME280_pressure;Samples;Min_cycle;Max_cycle;Signal;HPM_P1;HPM_P2
2023/06/15 00:00:48;;;;;;;5.60;2.80;;;22.70;44.20;;;;;;5019379;28;20284;-62
2023/06/15 00:03:15;;;;;;;6.07;2.60;;;22.70;43.70;;;;;;5029748;28;20021;-62
2023/06/15 00:05:40;;;;;;;5.97;2.83;;;22.70;43.90;;;;;;5030312;28;20037;-62
2023/06/15 00:08:06;;;;;;;5.45;2.40;;;22.70;44.00;;;;;;5032671;28;20327;-62
2023/06/15 00:10:32;;;;;;;6.32;2.67;;;22.60;44.10;;;;;;5025181;28;20091;-61
2023/06/15 00:12:57;;;;;;;6.03;2.95;;;22.60;44.20;;;;;;5031524;28;20044;-62
2023/06/15 00:15:23;;;;;;;6.15;2.78;;;22.60;44.40;;;;;;5026135;28;20131;-62
2023/06/15 00:17:49;;;;;;;6.50;2.80;;;22.60;44.50;;;;;;5032517;28;20048;-62
2023/06/15 00:20:16;;;;;;;6.03;3.03;;;22.60;44.60;;;;;;5028219;28;20033;-61
2023/06/15 00:22:45;;;;;;;6.35;3.08;;;22.50;45.30;;;;;;5035254;28;20037;-61
2023/06/15 00:25:11;;;;;;;6.78;3.00;;;22.50;44.90;;;;;;5034318;28;20038;-61
2023/06/15 00:27:37;;;;;;;6.90;2.78;;;22.50;45.60;;;;;;5025820;28;20038;-61
2023/06/15 00:30:04;;;;;;;6.53;3.25;;;22.50;45.20;;;;;;5026236;28;20024;-61
2023/06/15 00:32:31;;;;;;;5.97;3.15;;;22.50;45.40;;;;;;5029658;28;20465;-61
2023/06/15 00:34:56;;;;;;;8.02;3.33;;;22.40;45.50;;;;;;5034613;28;20025;-61
2023/06/15 00:37:22;;;;;;;6.70;2.97;;;22.40;45.70;;;;;;5030940;28;20060;-61
2023/06/15 00:39:48;;;;;;;9.63;3.45;;;22.40;45.90;;;;;;5021643;28;20473;-61
2023/06/15 00:42:14;;;;;;;6.47;3.25;;;22.40;46.00;;;;;;5021816;28;20101;-61
2023/06/15 00:44:40;;;;;;;5.88;3.00;;;22.40;46.20;;;;;;5034663;28;20025;-61
2023/06/15 00:47:06;;;;;;;7.18;3.17;;;22.30;46.40;;;;;;5035363;28;20468;-61
2023/06/15 00:49:33;;;;;;;6.47;3.38;;;22.30;46.70;;;;;;5035352;28;20160;-61
2023/06/15 00:52:00;;;;;;;7.13;3.67;;;22.30;46.90;;;;;;5031975;28;20381;-61
2023/06/15 00:54:27;;;;;;;6.43;3.20;;;22.30;47.10;;;;;;5034070;28;20442;-61
2023/06/15 00:56:53;;;;;;;8.77;3.15;;;22.30;47.30;;;;;;5029331;28;20068;-61
2023/06/15 00:59:20;;;;;;;6.95;3.40;;;22.30;47.50;;;;;;5029410;28;20409;-61
2023/06/15 01:01:54;;;;;;;6.53;2.90;;;22.20;47.60;;;;;;5028581;28;20359;-61
2023/06/15 01:04:24;;;;;;;6.22;3.15;;;22.20;47.80;;;;;;5024722;28;20075;-61
2023/06/15 01:06:56;;;;;;;7.30;3.25;;;22.20;48.00;;;;;;5026002;28;20032;-61
2023/06/15 01:09:26;;;;;;;6.80;3.30;;;22.20;48.10;;;;;;5028174;28;20057;-61
2023/06/15 01:11:55;;;;;;;9.27;3.60;;;22.20;48.30;;;;;;5034274;28;20021;-61
2023/06/15 01:14:25;;;;;;;8.18;3.88;;;22.20;48.50;;;;;;5030832;28;20033;-61
2023/06/15 01:16:58;;;;;;;7.55;3.33;;;22.10;48.60;;;;;;4999489;28;20025;-61
2023/06/15 01:19:38;;;;;;;6.82;3.30;;;22.10;48.80;;;;;;5030057;28;20021;-61
2023/06/15 01:22:19;;;;;;;7.80;3.10;;;22.10;49.00;;;;;;5030256;28;20025;-61
2023/06/15 01:24:57;;;;;;;8.48;3.35;;;22.10;49.10;;;;;;5031280;28;20026;-61
2023/06/15 01:27:24;;;;;;;7.38;3.63;;;22.10;49.30;;;;;;5018280;28;20068;-61
2023/06/15 01:29:52;;;;;;;7.50;3.25;;;22.10;49.40;;;;;;5030764;28;20026;-61
2023/06/15 01:32:19;;;;;;;8.30;3.15;;;22.00;49.60;;;;;;5032838;28;20025;-61
2023/06/15 01:34:46;;;;;;;7.97;3.15;;;22.00;49.80;;;;;;5031209;28;20032;-61
2023/06/15 01:37:12;;;;;;;7.13;3.60;;;22.00;49.90;;;;;;5031746;28;20094;-60
2023/06/15 01:39:39;;;;;;;6.40;3.58;;;22.00;50.00;;;;;;5027490;28;20065;-61
2023/06/15 01:42:06;;;;;;;6.78;3.53;;;22.00;50.20;;;;;;5030314;28;20029;-61
2023/06/15 01:44:32;;;;;;;7.85;3.35;;;22.00;50.30;;;;;;5025853;28;20447;-61
2023/06/15 01:46:57;;;;;;;8.13;3.80;;;21.90;50.30;;;;;;5016326;28;20037;-62
2023/06/15 01:49:24;;;;;;;7.25;3.60;;;21.90;50.40;;;;;;5028890;28;20026;-61
2023/06/15 01:51:49;;;;;;;7.30;3.42;;;21.90;50.50;;;;;;5033780;28;20029;-61
2023/06/15 01:54:15;;;;;;;7.03;3.55;;;21.90;50.70;;;;;;5029304;28;20064;-61
2023/06/15 01:56:42;;;;;;;6.90;3.30;;;21.90;50.80;;;;;;5009140;28;20506;-61
2023/06/15 01:59:09;;;;;;;7.78;3.53;;;21.90;50.90;;;;;;5030462;28;20017;-61
2023/06/15 02:01:35;;;;;;;6.90;3.65;;;21.90;51.10;;;;;;5034247;28;20017;-61
2023/06/15 02:04:01;;;;;;;8.40;3.78;;;21.80;51.10;;;;;;5031461;28;20044;-61
2023/06/15 02:06:27;;;;;;;7.70;3.33;;;21.80;51.30;;;;;;5034255;28;20385;-61
2023/06/15 02:08:53;;;;;;;7.55;3.22;;;21.80;51.30;;;;;;5022514;28;20021;-60
2023/06/15 02:11:18;;;;;;;7.07;3.00;;;21.80;51.40;;;;;;5033921;28;20017;-61
2023/06/15 02:13:44;;;;;;;9.35;3.83;;;21.80;51.50;;;;;;5032250;28;20100;-61
2023/06/15 02:16:11;;;;;;;6.43;3.53;;;21.80;51.60;;;;;;5033944;28;20057;-61
2023/06/15 02:18:37;;;;;;;8.20;3.33;;;21.70;51.70;;;;;;5028929;28;20117;-61
2023/06/15 02:21:03;;;;;;;7.15;3.30;;;21.70;51.80;;;;;;5031503;28;20029;-61
2023/06/15 02:23:29;;;;;;;8.02;3.60;;;21.70;52.50;;;;;;5034458;28;20125;-61
2023/06/15 02:25:54;;;;;;;6.65;3.53;;;21.70;52.00;;;;;;5042014;28;20068;-61
2023/06/15 02:28:20;;;;;;;7.30;3.60;;;21.60;52.10;;;;;;5031339;28;20057;-61
2023/06/15 02:30:46;;;;;;;7.53;3.30;;;21.60;52.20;;;;;;5033104;28;20029;-61
2023/06/15 02:33:12;;;;;;;8.75;3.65;;;21.60;52.90;;;;;;5029823;28;20025;-61
2023/06/15 02:35:38;;;;;;;8.68;3.97;;;21.60;52.40;;;;;;5031302;28;20112;-61
2023/06/15 02:38:04;;;;;;;6.70;3.22;;;21.50;52.60;;;;;;5030468;28;20447;-61
2023/06/15 02:40:30;;;;;;;6.30;3.20;;;21.50;52.60;;;;;;5010653;28;20087;-61
2023/06/15 02:42:56;;;;;;;7.72;3.35;;;21.50;52.80;;;;;;5016214;28;20335;-61
2023/06/15 02:45:22;;;;;;;7.70;3.50;;;21.50;52.90;;;;;;5028290;28;20030;-61
2023/06/15 02:47:48;;;;;;;7.15;3.58;;;21.40;52.90;;;;;;5033306;28;20025;-61
2023/06/15 02:50:14;;;;;;;8.32;3.15;;;21.40;53.10;;;;;;5027174;28;20022;-61
2023/06/15 02:52:45;;;;;;;6.72;3.50;;;21.40;53.30;;;;;;5030817;28;20025;-62
2023/06/15 02:55:13;;;;;;;8.45;3.42;;;21.40;53.30;;;;;;5028867;28;20027;-61
2023/06/15 02:57:41;;;;;;;6.20;3.20;;;21.30;53.40;;;;;;5033023;28;20352;-61
2023/06/15 03:00:18;;;;;;;7.43;3.60;;;21.30;53.50;;;;;;5025975;28;20025;-60
2023/06/15 03:02:52;;;;;;;7.75;3.78;;;21.30;53.50;;;;;;5032183;28;20076;-61
2023/06/15 03:05:20;;;;;;;7.80;4.00;;;21.30;53.60;;;;;;5039383;28;20041;-61
2023/06/15 03:07:52;;;;;;;7.53;3.72;;;21.30;53.60;;;;;;5024770;28;20399;-61
2023/06/15 03:10:26;;;;;;;7.45;3.40;;;21.20;53.70;;;;;;5011068;28;20029;-61
2023/06/15 03:12:52;;;;;;;7.68;3.85;;;21.20;53.80;;;;;;5034174;28;20092;-61
2023/06/15 03:15:18;;;;;;;7.90;3.80;;;21.20;53.90;;;;;;5024488;28;20350;-61
2023/06/15 03:17:45;;;;;;;6.60;3.45;;;21.10;53.80;;;;;;5032709;28;20041;-61
2023/06/15 03:20:12;;;;;;;7.57;3.60;;;21.10;53.90;;;;;;5007021;28;20079;-60
2023/06/15 03:22:39;;;;;;;8.40;3.50;;;21.10;54.00;;;;;;5027302;28;20029;-60
2023/06/15 03:25:10;;;;;;;8.82;3.90;;;21.10;54.00;;;;;;5023362;28;20029;-61
2023/06/15 03:27:37;;;;;;;7.28;3.47;;;21.10;54.10;;;;;;5038882;28;20076;-61
2023/06/15 03:30:09;;;;;;;7.93;3.65;;;21.10;54.10;;;;;;5019300;28;20375;-61
2023/06/15 03:32:34;;;;;;;7.57;3.70;;;21.00;54.10;;;;;;5032981;28;20445;-60
2023/06/15 03:35:01;;;;;;;7.22;3.60;;;21.00;54.20;;;;;;5003304;28;20025;-60
2023/06/15 03:37:29;;;;;;;7.78;3.60;;;20.90;54.20;;;;;;5012173;28;20202;-60
2023/06/15 03:39:54;;;;;;;7.43;3.58;;;20.90;54.30;;;;;;5015698;28;20066;-61
2023/06/15 03:42:20;;;;;;;7.75;4.13;;;20.90;54.40;;;;;;5030289;28;20518;-60
2023/06/15 03:44:46;;;;;;;8.63;3.83;;;20.90;54.40;;;;;;5032007;28;20099;-64
2023/06/15 03:47:13;;;;;;;6.70;3.63;;;20.90;54.30;;;;;;5008558;28;20030;-61
2023/06/15 03:49:39;;;;;;;7.28;3.92;;;20.90;54.30;;;;;;5005410;28;20084;-61
2023/06/15 03:52:05;;;;;;;8.07;3.88;;;20.90;54.30;;;;;;5025544;28;20049;-61
2023/06/15 03:54:32;;;;;;;7.43;3.45;;;20.90;54.30;;;;;;5019228;28;20029;-60
2023/06/15 03:56:59;;;;;;;6.82;3.55;;;20.90;54.50;;;;;;5028250;28;20040;-61
2023/06/15 03:59:25;;;;;;;8.65;3.45;;;20.90;54.60;;;;;;5021415;28;20371;-61
2023/06/15 04:01:51;;;;;;;6.22;3.28;;;20.80;54.60;;;;;;5031824;28;20053;-61
2023/06/15 04:04:17;;;;;;;7.25;3.92;;;20.80;54.70;;;;;;5027814;28;20477;-61
2023/06/15 04:06:47;;;;;;;7.38;3.53;;;20.80;54.70;;;;;;5012297;28;20083;-61
2023/06/15 04:09:14;;;;;;;6.93;3.88;;;20.80;54.70;;;;;;5027158;28;20036;-61
2023/06/15 04:11:41;;;;;;;9.30;3.70;;;20.80;54.80;;;;;;5026783;28;20025;-61
2023/06/15 04:14:07;;;;;;;7.30;3.65;;;20.80;54.90;;;;;;5026528;28;20053;-61
2023/06/15 04:16:33;;;;;;;7.80;3.92;;;20.80;55.00;;;;;;5029957;28;20021;-61
2023/06/15 04:18:59;;;;;;;7.85;3.55;;;20.80;55.00;;;;;;5033784;28;20440;-61
2023/06/15 04:21:26;;;;;;;7.45;3.42;;;20.80;55.00;;;;;;5030291;28;20079;-61
2023/06/15 04:23:52;;;;;;;9.18;4.40;;;20.80;55.00;;;;;;5033917;28;20109;-61
2023/06/15 04:26:18;;;;;;;6.57;3.63;;;20.80;54.90;;;;;;5032694;28;20101;-61
2023/06/15 04:28:45;;;;;;;7.28;3.65;;;20.90;54.90;;;;;;5019946;28;20113;-61
2023/06/15 04:31:20;;;;;;;6.93;3.45;;;20.90;54.80;;;;;;5028437;28;20046;-61
2023/06/15 04:33:47;;;;;;;10.20;3.45;;;20.90;54.70;;;;;;5034056;28;20036;-60
2023/06/15 04:36:13;;;;;;;7.13;3.80;;;20.90;54.60;;;;;;5007131;28;20041;-60
2023/06/15 04:38:46;;;;;;;8.23;3.83;;;20.90;54.70;;;;;;5019133;28;20018;-60
2023/06/15 04:41:14;;;;;;;8.55;4.13;;;20.90;54.80;;;;;;5031505;28;20412;-60
2023/06/15 04:43:41;;;;;;;7.97;3.78;;;21.00;54.90;;;;;;5017622;28;20033;-60
2023/06/15 04:46:08;;;;;;;9.55;3.85;;;21.00;54.90;;;;;;5025773;28;20026;-60
2023/06/15 04:48:35;;;;;;;6.93;3.65;;;21.00;55.00;;;;;;5017260;28;20029;-60
2023/06/15 04:51:00;;;;;;;8.90;3.90;;;21.00;55.00;;;;;;5023801;28;20028;-60
2023/06/15 04:53:27;;;;;;;7.65;4.20;;;21.00;54.90;;;;;;5026696;28;20025;-61
2023/06/15 04:55:53;;;;;;;8.57;4.28;;;21.10;54.80;;;;;;5025593;28;20040;-61
2023/06/15 04:58:19;;;;;;;8.52;4.18;;;21.10;54.70;;;;;;5027533;28;20037;-61
2023/06/15 05:00:46;;;;;;;7.22;3.70;;;21.20;54.70;;;;;;5013987;28;20029;-62
2023/06/15 05:03:13;;;;;;;7.75;4.00;;;21.20;54.60;;;;;;5036008;28;20033;-61
2023/06/15 05:05:39;;;;;;;9.80;4.30;;;21.20;54.50;;;;;;5020658;28;20030;-61
2023/06/15 05:08:04;;;;;;;6.57;3.90;;;21.20;54.40;;;;;;5035217;28;20032;-61
2023/06/15 05:10:31;;;;;;;6.93;3.65;;;21.30;54.40;;;;;;5035389;28;20017;-61
2023/06/15 05:12:58;;;;;;;7.97;4.20;;;21.40;54.40;;;;;;5035569;28;20143;-61
2023/06/15 05:15:24;;;;;;;7.80;3.92;;;21.40;54.10;;;;;;5029767;28;20112;-61
2023/06/15 05:17:50;;;;;;;9.80;4.00;;;21.50;53.90;;;;;;5023155;28;20124;-61
2023/06/15 05:20:16;;;;;;;9.02;4.28;;;21.60;53.90;;;;;;5011186;28;20108;-61
2023/06/15 05:22:41;;;;;;;7.53;3.90;;;21.70;53.80;;;;;;5025989;28;20034;-61
2023/06/15 05:25:08;;;;;;;7.97;3.92;;;21.80;53.60;;;;;;5042224;28;21117;-62
2023/06/15 05:27:35;;;;;;;7.57;3.88;;;21.90;53.40;;;;;;5028055;28;20034;-61
2023/06/15 05:30:02;;;;;;;9.77;4.30;;;22.00;53.10;;;;;;5025075;28;20351;-61
2023/06/15 05:32:27;;;;;;;13.93;3.97;;;22.10;52.90;;;;;;5011058;28;20034;-61
2023/06/15 05:34:53;;;;;;;8.70;4.00;;;22.20;52.70;;;;;;5027477;28;20037;-61
2023/06/15 05:37:19;;;;;;;8.65;4.18;;;22.30;52.50;;;;;;5026670;28;20025;-61
2023/06/15 05:39:46;;;;;;;6.63;3.45;;;22.40;52.50;;;;;;5026134;28;20087;-61
2023/06/15 05:42:12;;;;;;;8.40;3.88;;;22.50;52.40;;;;;;5025995;28;20055;-61
2023/06/15 05:44:41;;;;;;;9.32;3.90;;;22.60;52.30;;;;;;5029941;28;20051;-61
2023/06/15 05:47:06;;;;;;;6.95;3.70;;;22.60;52.10;;;;;;5025153;28;20467;-61
2023/06/15 05:49:32;;;;;;;8.93;3.88;;;22.70;51.90;;;;;;5013855;28;20359;-61
2023/06/15 05:51:59;;;;;;;7.93;4.25;;;22.80;51.70;;;;;;5027316;28;20112;-61
2023/06/15 05:54:27;;;;;;;9.63;4.00;;;22.90;51.40;;;;;;5028396;28;20469;-61
2023/06/15 05:56:56;;;;;;;7.03;3.60;;;23.00;51.30;;;;;;5008921;28;20026;-61
2023/06/15 05:59:21;;;;;;;8.27;4.10;;;23.10;51.00;;;;;;5028822;28;20088;-61
2023/06/15 06:01:47;;;;;;;8.80;4.00;;;23.10;50.70;;;;;;5022204;28;20405;-61
2023/06/15 06:04:13;;;;;;;7.35;3.58;;;23.20;50.60;;;;;;5038106;28;20037;-61
2023/06/15 06:06:39;;;;;;;10.27;4.15;;;23.30;50.50;;;;;;5024078;28;20038;-61
2023/06/15 06:09:05;;;;;;;8.45;4.15;;;23.40;50.40;;;;;;5023825;28;20108;-61
2023/06/15 06:11:31;;;;;;;7.18;3.78;;;23.50;50.40;;;;;;5027493;28;20021;-61
2023/06/15 06:14:00;;;;;;;7.55;3.85;;;23.60;50.20;;;;;;5008584;28;20430;-61
2023/06/15 06:16:27;;;;;;;7.97;4.13;;;23.60;49.80;;;;;;5026475;28;20030;-61
2023/06/15 06:18:53;;;;;;;8.60;3.80;;;23.70;49.60;;;;;;5017405;28;20091;-61
2023/06/15 06:21:19;;;;;;;9.80;4.35;;;23.80;49.50;;;;;;5023556;28;20450;-61
2023/06/15 06:23:44;;;;;;;10.75;4.13;;;23.90;49.30;;;;;;5027912;28;20068;-61
2023/06/15 06:26:11;;;;;;;7.13;3.85;;;24.00;49.20;;;;;;5026028;28;20029;-61
2023/06/15 06:28:37;;;;;;;6.90;3.60;;;24.10;49.00;;;;;;5026287;28;20025;-62
2023/06/15 06:31:03;;;;;;;7.82;3.80;;;24.20;48.70;;;;;;5027215;28;20096;-61
2023/06/15 06:33:29;;;;;;;8.57;4.22;;;24.30;48.60;;;;;;5023106;28;20457;-62
2023/06/15 06:35:54;;;;;;;7.82;3.78;;;24.30;48.20;;;;;;5025262;28;20195;-61
2023/06/15 06:38:20;;;;;;;9.90;4.00;;;24.40;47.90;;;;;;5024984;28;20076;-60
2023/06/15 06:40:46;;;;;;;7.88;3.88;;;24.60;47.80;;;;;;5027226;28;20034;-61
2023/06/15 06:43:12;;;;;;;6.85;3.67;;;24.70;47.60;;;;;;5028009;28;20028;-61
2023/06/15 06:45:37;;;;;;;6.82;3.47;;;24.80;47.40;;;;;;5025063;28;20049;-61
2023/06/15 06:48:03;;;;;;;9.98;3.92;;;24.90;47.00;;;;;;5027334;28;20132;-61
2023/06/15 06:50:29;;;;;;;6.82;3.85;;;25.00;46.80;;;;;;5042804;28;20034;-61
2023/06/15 06:52:55;;;;;;;8.98;3.83;;;25.10;46.70;;;;;;5026147;28;20024;-61
2023/06/15 06:55:21;;;;;;;7.65;4.40;;;25.20;46.70;;;;;;5024907;28;20510;-61
2023/06/15 06:57:46;;;;;;;6.97;3.72;;;25.30;46.40;;;;;;5022752;28;21035;-61
2023/06/15 07:00:13;;;;;;;8.60;3.67;;;25.50;46.20;;;;;;5025086;28;20033;-61
2023/06/15 07:02:38;;;;;;;8.60;3.90;;;25.50;45.80;;;;;;5026007;28;20064;-61
2023/06/15 07:05:04;;;;;;;7.78;3.67;;;25.60;45.60;;;;;;5025169;28;20080;-61
2023/06/15 07:07:30;;;;;;;10.00;3.78;;;25.80;45.60;;;;;;5020311;28;20451;-61
2023/06/15 07:09:56;;;;;;;6.75;3.65;;;25.90;45.60;;;;;;5026430;28;20037;-61
2023/06/15 07:12:21;;;;;;;10.63;4.50;;;26.00;45.40;;;;;;5026782;28;20060;-62
2023/06/15 07:14:48;;;;;;;7.10;3.88;;;26.10;45.20;;;;;;5026232;28;20136;-61
2023/06/15 07:17:13;;;;;;;10.10;4.05;;;26.30;45.00;;;;;;5025775;28;20072;-62
2023/06/15 07:19:39;;;;;;;7.45;4.00;;;26.40;44.50;;;;;;5027545;28;20046;-62
2023/06/15 07:22:05;;;;;;;8.60;4.10;;;26.50;44.20;;;;;;5025044;28;20289;-62
2023/06/15 07:24:31;;;;;;;7.43;4.00;;;26.60;43.80;;;;;;5023097;28;20029;-62
2023/06/15 07:26:57;;;;;;;10.63;4.28;;;26.80;43.70;;;;;;5026950;28;20029;-62
2023/06/15 07:29:23;;;;;;;6.18;3.60;;;26.90;43.30;;;;;;5026791;28;20045;-62
2023/06/15 07:31:49;;;;;;;7.53;3.42;;;26.90;43.20;;;;;;5024948;28;20021;-61
2023/06/15 07:34:14;;;;;;;6.82;3.35;;;27.10;43.20;;;;;;5023888;28;20147;-62
2023/06/15 07:36:40;;;;;;;8.50;3.88;;;27.20;43.00;;;;;;5024885;28;20066;-62
2023/06/15 07:39:06;;;;;;;9.15;4.18;;;27.40;42.70;;;;;;5024008;28;20026;-62
2023/06/15 07:41:32;;;;;;;6.80;3.42;;;27.50;42.30;;;;;;5010092;28;20191;-62
2023/06/15 07:43:58;;;;;;;9.55;4.13;;;27.50;42.10;;;;;;5028573;28;20112;-62
2023/06/15 07:46:23;;;;;;;9.43;3.28;;;27.60;42.10;;;;;;5026867;28;20029;-63
2023/06/15 07:48:49;;;;;;;7.25;3.72;;;27.70;41.90;;;;;;5026351;28;20030;-62
2023/06/15 07:51:15;;;;;;;8.60;3.60;;;27.80;41.60;;;;;;5018214;28;20029;-62
2023/06/15 07:53:41;;;;;;;8.32;3.40;;;27.90;41.20;;;;;;5029930;28;20028;-61
2023/06/15 07:56:06;;;;;;;10.10;3.47;;;28.00;40.60;;;;;;5030994;28;20041;-62
2023/06/15 07:58:32;;;;;;;8.02;3.53;;;28.10;41.00;;;;;;5032934;28;20107;-62
2023/06/15 08:00:58;;;;;;;7.50;3.40;;;28.20;40.40;;;;;;5030803;28;20434;-62
2023/06/15 08:03:24;;;;;;;7.07;3.33;;;28.30;40.20;;;;;;5030618;28;20044;-62
2023/06/15 08:05:50;;;;;;;7.28;3.55;;;28.40;40.10;;;;;;5028645;28;20108;-63
2023/06/15 08:08:15;;;;;;;7.38;3.13;;;28.40;40.20;;;;;;5036458;28;20029;-62
2023/06/15 08:10:41;;;;;;;6.25;3.17;;;28.50;40.10;;;;;;5037756;28;20071;-61
2023/06/15 08:13:07;;;;;;;7.82;3.35;;;28.60;39.80;;;;;;5037533;28;20117;-62
2023/06/15 08:15:33;;;;;;;6.45;3.53;;;28.70;39.60;;;;;;5036459;28;20049;-62
2023/06/15 08:17:59;;;;;;;5.90;2.95;;;28.80;39.40;;;;;;5030729;28;20414;-61
2023/06/15 08:20:26;;;;;;;7.72;3.83;;;28.90;39.20;;;;;;5037796;28;20048;-61
2023/06/15 08:22:52;;;;;;;7.40;3.47;;;28.90;39.30;;;;;;5037456;28;20144;-61
2023/06/15 08:25:17;;;;;;;8.90;3.30;;;29.10;39.50;;;;;;5041558;28;20068;-62
2023/06/15 08:27:43;;;;;;;6.28;3.10;;;29.20;39.50;;;;;;5042268;28;20026;-61
2023/06/15 08:30:09;;;;;;;6.53;2.95;;;29.20;39.20;;;;;;5033175;28;20391;-61
2023/06/15 08:32:35;;;;;;;6.57;3.33;;;29.20;38.50;;;;;;5037454;28;20505;-61
2023/06/15 08:35:01;;;;;;;6.57;2.85;;;29.20;38.30;;;;;;5037040;28;20029;-61
2023/06/15 08:37:27;;;;;;;10.75;2.70;;;29.30;38.10;;;;;;5036387;28;20082;-61
2023/06/15 08:39:52;;;;;;;7.13;2.58;;;29.50;38.00;;;;;;5036275;28;20040;-61
2023/06/15 08:42:21;;;;;;;8.43;3.33;;;29.60;37.70;;;;;;5036974;28;20021;-61
2023/06/15 08:44:50;;;;;;;7.00;2.58;;;29.70;37.50;;;;;;5037063;28;20037;-61
2023/06/15 08:47:16;;;;;;;5.25;2.67;;;29.80;37.10;;;;;;5036726;28;20037;-61
2023/06/15 08:49:43;;;;;;;5.45;2.85;;;29.80;37.00;;;;;;5035461;28;20491;-61
2023/06/15 08:52:12;;;;;;;6.70;3.03;;;30.00;37.20;;;;;;5037221;28;20036;-61
2023/06/15 08:54:42;;;;;;;5.78;2.97;;;30.10;37.00;;;;;;5037141;28;20108;-61
2023/06/15 08:57:08;;;;;;;7.45;2.55;;;30.10;36.50;;;;;;5035794;28;20030;-61
2023/06/15 08:59:34;;;;;;;8.25;2.70;;;30.20;36.20;;;;;;5027897;28;20022;-60
2023/06/15 09:02:03;;;;;;;7.15;2.92;;;30.30;36.30;;;;;;5035062;28;20034;-61
2023/06/15 09:04:31;;;;;;;5.88;2.78;;;30.30;36.20;;;;;;5036507;28;20485;-61
2023/06/15 09:06:59;;;;;;;6.47;2.85;;;30.40;36.00;;;;;;5035501;28;20033;-60
2023/06/15 09:09:25;;;;;;;6.10;2.97;;;30.50;36.00;;;;;;5031086;28;20041;-61
2023/06/15 09:11:51;;;;;;;6.00;2.75;;;30.60;36.20;;;;;;5036088;28;20049;-61
2023/06/15 09:14:16;;;;;;;6.18;2.97;;;30.70;36.00;;;;;;5036199;28;20049;-61
2023/06/15 09:16:42;;;;;;;5.60;2.72;;;30.80;36.10;;;;;;5022666;28;20338;-61
2023/06/15 09:19:16;;;;;;;6.97;2.80;;;30.80;36.10;;;;;;5036414;28;20471;-61
2023/06/15 09:21:48;;;;;;;8.15;3.00;;;30.90;36.10;;;;;;5032840;28;20029;-61
2023/06/15 09:24:16;;;;;;;7.65;3.35;;;30.90;36.20;;;;;;5027623;28;20358;-61
2023/06/15 09:26:44;;;;;;;6.38;2.80;;;31.00;36.20;;;;;;5049847;28;20039;-61
2023/06/15 09:29:11;;;;;;;5.72;2.65;;;31.10;36.00;;;;;;5036160;28;20034;-61
2023/06/15 09:31:38;;;;;;;5.68;3.05;;;31.10;36.00;;;;;;5036050;28;20033;-61
2023/06/15 09:34:11;;;;;;;6.28;2.78;;;31.20;36.00;;;;;;5033530;28;20020;-61
2023/06/15 09:36:41;;;;;;;7.25;3.25;;;31.30;35.80;;;;;;5030867;28;20095;-61
2023/06/15 09:39:11;;;;;;;6.80;2.78;;;31.30;35.60;;;;;;5035766;28;20071;-61
2023/06/15 09:41:56;;;;;;;6.50;2.63;;;31.40;35.70;;;;;;5037503;28;20033;-61
2023/06/15 09:44:22;;;;;;;7.50;2.85;;;31.50;35.40;;;;;;5032212;28;20701;-61
2023/06/15 09:47:01;;;;;;;6.53;2.80;;;31.60;35.10;;;;;;5030900;28;20426;-61
2023/06/15 09:49:28;;;;;;;6.55;2.80;;;31.70;34.90;;;;;;5036128;28;20060;-61
2023/06/15 09:51:55;;;;;;;7.28;3.30;;;31.70;34.80;;;;;;5034643;28;20053;-62
2023/06/15 09:54:25;;;;;;;5.30;2.55;;;31.80;34.60;;;;;;5034952;28;20387;-63
2023/06/15 09:56:52;;;;;;;8.27;3.00;;;32.00;34.20;;;;;;5027431;28;20104;-61
2023/06/15 09:59:20;;;;;;;6.05;2.80;;;32.00;34.00;;;;;;5035606;28;20462;-61
2023/06/15 10:01:48;;;;;;;6.15;3.13;;;32.10;33.70;;;;;;5030844;28;20145;-60
2023/06/15 10:04:16;;;;;;;6.32;2.83;;;32.10;33.60;;;;;;5031655;28;20041;-62
2023/06/15 10:06:45;;;;;;;8.77;3.13;;;32.00;33.70;;;;;;5032455;28;20526;-61
2023/06/15 10:09:15;;;;;;;6.82;2.75;;;31.90;33.60;;;;;;5031366;28;20022;-61
2023/06/15 10:11:43;;;;;;;6.60;2.95;;;31.70;33.90;;;;;;5028708;28;20274;-61
2023/06/15 10:14:15;;;;;;;5.68;2.80;;;31.70;33.70;;;;;;5025149;28;20080;-61
2023/06/15 10:16:45;;;;;;;5.45;2.70;;;31.80;33.70;;;;;;5024207;28;20042;-61
2023/06/15 10:19:12;;;;;;;6.00;2.78;;;31.70;33.50;;;;;;5025197;28;20369;-61
2023/06/15 10:21:42;;;;;;;5.63;2.80;;;31.50;33.50;;;;;;5026218;28;20044;-61
2023/06/15 10:24:14;;;;;;;5.93;2.95;;;31.10;33.60;;;;;;5025311;28;20029;-61
2023/06/15 10:26:41;;;;;;;6.05;2.80;;;30.60;33.70;;;;;;5026205;28;20039;-61
2023/06/15 10:29:18;;;;;;;6.15;2.70;;;30.30;34.10;;;;;;5024645;28;20044;-61
2023/06/15 10:32:07;;;;;;;7.68;2.47;;;30.00;34.10;;;;;;5026935;28;20033;-61
2023/06/15 10:34:45;;;;;;;6.00;2.63;;;30.30;34.00;;;;;;5024056;28;20044;-61
2023/06/15 10:37:37;;;;;;;6.35;2.85;;;30.70;33.80;;;;;;5025653;28;20044;-61
2023/06/15 10:40:18;;;;;;;5.63;2.53;;;31.10;33.70;;;;;;5026504;28;20052;-61
2023/06/15 10:42:47;;;;;;;6.85;2.53;;;31.40;33.40;;;;;;5042018;28;20043;-62
2023/06/15 10:45:33;;;;;;;5.72;2.70;;;31.50;33.60;;;;;;5023953;28;20053;-62
2023/06/15 10:48:01;;;;;;;7.95;3.25;;;31.70;33.20;;;;;;5024817;28;20025;-62
2023/06/15 10:50:36;;;;;;;5.90;2.65;;;31.80;32.70;;;;;;5024161;28;20057;-62
2023/06/15 10:53:02;;;;;;;5.93;2.88;;;31.80;32.60;;;;;;5025000;28;20063;-62
2023/06/15 10:55:28;;;;;;;5.53;2.47;;;31.70;32.60;;;;;;5024978;28;20056;-63
2023/06/15 10:58:16;;;;;;;5.53;2.75;;;31.40;32.80;;;;;;5021543;28;20462;-62
2023/06/15 11:00:49;;;;;;;6.72;2.80;;;31.00;32.80;;;;;;5027138;28;20501;-62
2023/06/15 11:03:25;;;;;;;6.15;2.90;;;30.50;33.10;;;;;;5026131;28;20140;-61
2023/06/15 11:06:06;;;;;;;7.45;2.83;;;30.20;33.30;;;;;;5027328;28;20060;-62
2023/06/15 11:08:46;;;;;;;7.35;2.92;;;29.90;33.40;;;;;;5023045;28;20030;-61
2023/06/15 11:11:13;;;;;;;8.77;3.42;;;29.70;33.70;;;;;;5027002;28;20451;-61
2023/06/15 11:14:05;;;;;;;5.03;2.45;;;29.90;33.40;;;;;;5027405;28;20354;-61
2023/06/15 11:16:36;;;;;;;5.95;2.85;;;30.30;33.10;;;;;;5022501;28;20366;-61
2023/06/15 11:19:11;;;;;;;5.13;2.38;;;30.70;33.00;;;;;;5021336;28;20522;-63
2023/06/15 11:21:41;;;;;;;6.85;3.15;;;31.00;32.30;;;;;;5034030;28;20029;-62
2023/06/15 11:24:13;;;;;;;7.82;2.80;;;31.20;32.20;;;;;;5020427;28;20043;-62
2023/06/15 11:26:40;;;;;;;6.75;2.70;;;31.40;31.80;;;;;;5047656;28;20044;-61
2023/06/15 11:29:08;;;;;;;5.55;2.47;;;31.50;31.80;;;;;;5034110;28;20399;-62
2023/06/15 11:31:34;;;;;;;5.45;2.72;;;31.70;31.90;;;;;;5032839;28;20087;-62
2023/06/15 11:34:00;;;;;;;8.27;2.88;;;31.80;31.80;;;;;;5021526;28;20133;-61
2023/06/15 11:36:26;;;;;;;4.20;2.30;;;31.80;31.80;;;;;;5026426;28;20033;-62
2023/06/15 11:38:53;;;;;;;5.05;2.47;;;31.80;31.80;;;;;;5026889;28;20041;-61
2023/06/15 11:41:22;;;;;;;5.50;2.53;;;32.00;31.70;;;;;;5033134;28;20446;-61
2023/06/15 11:43:49;;;;;;;5.78;2.83;;;32.10;31.10;;;;;;5033121;28;20065;-62
2023/06/15 11:46:20;;;;;;;4.70;1.90;;;32.10;30.60;;;;;;5032221;28;20117;-62
2023/06/15 11:48:48;;;;;;;7.00;2.47;;;32.10;30.70;;;;;;5033917;28;20040;-62
2023/06/15 11:51:15;;;;;;;6.15;2.55;;;32.10;30.40;;;;;;5033801;28;20033;-61
2023/06/15 11:53:42;;;;;;;5.05;2.08;;;32.10;30.20;;;;;;5033949;28;20466;-61
2023/06/15 11:56:12;;;;;;;6.25;2.47;;;32.10;30.30;;;;;;5032576;28;20292;-61
2023/06/15 11:58:39;;;;;;;7.47;2.20;;;32.00;30.20;;;;;;5034172;28;20033;-62
2023/06/15 12:01:06;;;;;;;5.82;2.25;;;32.10;30.20;;;;;;5032541;28;20029;-61
2023/06/15 12:03:36;;;;;;;6.30;2.83;;;32.10;30.20;;;;;;5034136;28;20030;-61
2023/06/15 12:06:01;;;;;;;4.47;2.38;;;32.00;30.00;;;;;;5031386;28;20435;-61
2023/06/15 12:08:28;;;;;;;6.30;2.70;;;32.00;30.10;;;;;;5032477;28;20064;-62
2023/06/15 12:10:56;;;;;;;5.82;2.60;;;31.90;30.30;;;;;;5033745;28;20358;-62
2023/06/15 12:13:23;;;;;;;5.57;2.65;;;31.80;30.10;;;;;;5032415;28;20508;-61
2023/06/15 12:15:51;;;;;;;5.43;2.72;;;31.80;30.30;;;;;;5031479;28;20053;-62
2023/06/15 12:18:19;;;;;;;5.50;2.33;;;31.80;30.60;;;;;;5033592;28;20029;-62
2023/06/15 12:20:47;;;;;;;4.97;2.45;;;31.80;30.60;;;;;;5033534;28;20057;-61
2023/06/15 12:23:33;;;;;;;5.07;2.17;;;31.80;30.30;;;;;;5033275;28;20039;-63
2023/06/15 12:26:02;;;;;;;7.18;2.70;;;31.60;30.00;;;;;;5027039;28;20038;-61
2023/06/15 12:28:32;;;;;;;4.83;2.20;;;31.40;30.00;;;;;;5029692;28;20033;-62
2023/06/15 12:31:05;;;;;;;5.00;1.92;;;31.30;30.00;;;;;;5032262;28;20076;-61
2023/06/15 12:33:38;;;;;;;5.75;2.60;;;31.20;30.00;;;;;;5033538;28;20088;-62
2023/06/15 12:36:12;;;;;;;4.35;2.20;;;31.10;30.00;;;;;;5033672;28;20116;-62
2023/06/15 12:38:39;;;;;;;4.40;2.08;;;31.10;29.80;;;;;;5033771;28;20052;-62
2023/06/15 12:41:12;;;;;;;5.50;2.10;;;31.10;29.90;;;;;;5036502;28;20030;-61
2023/06/15 12:43:38;;;;;;;5.18;2.35;;;31.00;29.80;;;;;;5036050;28;20409;-62
2023/06/15 12:46:04;;;;;;;5.47;2.45;;;31.10;29.70;;;;;;5037323;28;20223;-62
2023/06/15 12:48:31;;;;;;;6.07;2.30;;;31.00;29.80;;;;;;5037463;28;20447;-61